Time;durP1;ratioP1;P1;durP2;ratioP2;P2;SDS_P1;SDS_P2;PMS_P1;PMS_P2;Temp;Humidity;BMP_temperature;BMP_pressure;BME280_temperature;BME280_humidity;BME280_pressure;Samples;Min_cycle;Max_cycle;Signal;HPM_P1;HPM_P2
2022/04/23 05:01:09;;;;;;;16.33;11.73;;;8.70;99.90;;;;;;5650218;23;20046;-82
2022/04/23 05:03:36;;;;;;;17.75;12.10;;;8.80;99.90;;;;;;4957114;28;20295;-82
2022/04/23 05:06:03;;;;;;;16.35;11.60;;;8.90;99.90;;;;;;4974872;28;20499;-80
2022/04/23 05:08:30;;;;;;;17.25;12.40;;;9.10;99.90;;;;;;4971650;28;20050;-80
2022/04/23 05:10:57;;;;;;;16.52;11.93;;;9.00;99.90;;;;;;4974615;28;20059;-79
2022/04/23 05:13:24;;;;;;;16.83;12.18;;;9.00;99.90;;;;;;4974904;28;20070;-79
2022/04/23 05:15:51;;;;;;;17.20;12.25;;;8.90;99.90;;;;;;4975052;28;20047;-79
2022/04/23 05:18:20;;;;;;;17.02;12.30;;;8.90;99.90;;;;;;4975072;28;20150;-79
2022/04/23 05:20:47;;;;;;;18.83;13.15;;;8.90;99.90;;;;;;4975006;28;20050;-79
2022/04/23 05:23:14;;;;;;;17.92;12.30;;;8.50;99.90;;;;;;4974561;28;20053;-79
2022/04/23 05:25:44;;;;;;;16.30;12.13;;;8.20;99.90;;;;;;4975315;28;20061;-79
2022/04/23 05:28:14;;;;;;;17.65;13.35;;;8.40;99.90;;;;;;4972889;28;20084;-79
2022/04/23 05:30:42;;;;;;;19.55;14.10;;;8.60;99.90;;;;;;4974708;28;20055;-80
2022/04/23 05:33:12;;;;;;;16.55;12.63;;;8.50;99.90;;;;;;4970744;28;20059;-79
2022/04/23 05:35:40;;;;;;;16.83;12.15;;;8.60;99.90;;;;;;4970209;28;20554;-79
2022/04/23 05:38:09;;;;;;;16.52;12.88;;;8.70;99.90;;;;;;4974341;28;20436;-80
2022/04/23 05:40:36;;;;;;;19.27;13.90;;;8.80;99.90;;;;;;4974573;28;20568;-79
2022/04/23 05:43:03;;;;;;;19.13;13.93;;;8.60;99.90;;;;;;4974667;28;20057;-79
2022/04/23 05:45:31;;;;;;;18.67;13.70;;;8.80;99.90;;;;;;4976152;28;20055;-80
2022/04/23 05:47:59;;;;;;;15.95;12.23;;;8.70;99.90;;;;;;4994095;28;20246;-80
2022/04/23 05:50:26;;;;;;;16.67;12.75;;;8.70;99.90;;;;;;4986869;28;20038;-79
2022/04/23 05:52:55;;;;;;;17.33;12.65;;;8.80;99.90;;;;;;4974207;28;20047;-78
2022/04/23 05:55:23;;;;;;;18.08;12.93;;;8.90;99.90;;;;;;4970753;28;20495;-85
2022/04/23 05:57:50;;;;;;;17.63;12.75;;;8.90;99.90;;;;;;4972326;28;20051;-81
2022/04/23 06:00:21;;;;;;;17.63;13.25;;;9.00;99.90;;;;;;4970559;28;20049;-82
2022/04/23 06:02:48;;;;;;;17.13;13.07;;;9.00;99.90;;;;;;4993209;28;20517;-83
2022/04/23 06:05:16;;;;;;;17.08;12.32;;;9.20;99.90;;;;;;4993429;28;20050;-78
2022/04/23 06:07:43;;;;;;;15.07;11.75;;;9.40;99.90;;;;;;4990398;28;20050;-78
2022/04/23 06:10:11;;;;;;;15.82;11.30;;;9.50;99.90;;;;;;4984741;28;20060;-77
2022/04/23 06:12:38;;;;;;;14.95;11.52;;;9.60;99.90;;;;;;4973985;28;20055;-79
2022/04/23 06:15:08;;;;;;;13.05;9.70;;;9.70;99.90;;;;;;4976991;28;20050;-79
2022/04/23 06:17:38;;;;;;;12.07;8.82;;;9.90;99.90;;;;;;4993536;28;20085;-79
2022/04/23 06:20:07;;;;;;;12.45;8.95;;;10.10;99.90;;;;;;4991232;28;20042;-79
2022/04/23 06:22:34;;;;;;;11.77;8.90;;;10.10;99.90;;;;;;4987162;28;20042;-78
2022/04/23 06:25:01;;;;;;;12.23;8.80;;;10.20;99.90;;;;;;4992650;28;20046;-78
2022/04/23 06:27:30;;;;;;;11.32;8.68;;;10.30;99.90;;;;;;4992472;28;20452;-78
2022/04/23 06:29:58;;;;;;;12.65;8.70;;;10.30;99.90;;;;;;4992534;28;20519;-80
2022/04/23 06:32:25;;;;;;;11.48;8.13;;;10.40;99.90;;;;;;4991739;28;20105;-79
2022/04/23 06:34:52;;;;;;;11.52;8.10;;;10.50;99.90;;;;;;4979347;28;20057;-79
2022/04/23 06:37:19;;;;;;;11.10;7.63;;;10.50;99.90;;;;;;4981196;28;20038;-78
2022/04/23 06:39:46;;;;;;;10.48;8.05;;;10.70;99.90;;;;;;4997270;28;20443;-79
2022/04/23 06:42:14;;;;;;;11.73;8.75;;;10.60;99.90;;;;;;4997287;28;20050;-79
2022/04/23 06:44:43;;;;;;;9.77;7.55;;;10.60;99.90;;;;;;4997152;28;20050;-79
2022/04/23 06:47:10;;;;;;;10.75;7.68;;;10.70;99.90;;;;;;4997042;28;20048;-79
2022/04/23 06:49:37;;;;;;;9.90;7.38;;;10.80;99.90;;;;;;4996999;28;20049;-79
2022/04/23 06:52:05;;;;;;;8.80;6.68;;;10.90;99.90;;;;;;4996927;28;20046;-79
2022/04/23 06:54:32;;;;;;;9.55;7.28;;;10.80;99.90;;;;;;4997267;28;20133;-79
2022/04/23 06:56:59;;;;;;;10.10;7.40;;;10.90;99.90;;;;;;4997045;28;20415;-79
2022/04/23 06:59:26;;;;;;;9.07;6.53;;;10.80;99.90;;;;;;4996983;28;20137;-80
2022/04/23 07:01:55;;;;;;;8.93;6.60;;;10.90;99.90;;;;;;4996714;28;20507;-78
2022/04/23 07:04:23;;;;;;;7.53;5.82;;;11.10;99.90;;;;;;4996876;28;20557;-79
2022/04/23 07:06:50;;;;;;;8.27;6.18;;;11.20;99.90;;;;;;4996753;28;20054;-79
2022/04/23 07:09:17;;;;;;;8.52;6.15;;;11.20;99.90;;;;;;4997033;28;20057;-79
2022/04/23 07:11:45;;;;;;;9.35;6.95;;;11.30;99.90;;;;;;4996503;28;20062;-79
2022/04/23 07:14:14;;;;;;;9.35;7.03;;;11.20;99.90;;;;;;4990832;28;20077;-83
2022/04/23 07:16:44;;;;;;;9.50;7.38;;;11.20;99.90;;;;;;4993165;28;20060;-84
2022/04/23 07:19:13;;;;;;;9.88;7.10;;;11.30;99.90;;;;;;4995577;28;20061;-84
2022/04/23 07:21:40;;;;;;;8.70;6.80;;;11.20;99.90;;;;;;4996466;28;20134;-84
2022/04/23 07:24:11;;;;;;;9.27;6.70;;;11.30;99.90;;;;;;4996620;28;20141;-83
2022/04/23 07:26:39;;;;;;;8.13;6.07;;;11.30;99.90;;;;;;4996477;28;20450;-80
2022/04/23 07:29:08;;;;;;;8.40;6.28;;;11.30;99.90;;;;;;4996382;28;20053;-80
2022/04/23 07:31:36;;;;;;;7.30;5.57;;;11.50;99.90;;;;;;4994120;28;20053;-82
2022/04/23 07:39:36;;;;;;;9.57;7.32;;;11.60;99.90;;;;;;4995836;28;20157;-80
2022/04/23 07:42:05;;;;;;;9.35;6.90;;;11.50;99.90;;;;;;4985934;28;20117;-78
2022/04/23 07:44:32;;;;;;;8.27;6.63;;;11.50;99.90;;;;;;4988294;28;20048;-79
2022/04/23 07:46:59;;;;;;;8.35;6.38;;;11.60;99.90;;;;;;4995312;28;20050;-78
2022/04/23 07:49:27;;;;;;;9.73;6.15;;;11.90;99.90;;;;;;4999117;28;20411;-78
2022/04/23 07:51:56;;;;;;;7.53;5.85;;;12.00;99.90;;;;;;4995865;28;20129;-79
2022/04/23 07:54:23;;;;;;;7.97;5.95;;;11.90;99.90;;;;;;4991001;28;20615;-78
2022/04/23 07:56:50;;;;;;;7.80;5.78;;;12.10;99.90;;;;;;4989964;28;20077;-78
2022/04/23 07:59:17;;;;;;;10.25;7.57;;;12.20;99.90;;;;;;4995139;28;20044;-77
2022/04/23 08:01:44;;;;;;;9.70;7.22;;;12.00;99.90;;;;;;4994531;28;20068;-77
2022/04/23 08:04:11;;;;;;;9.07;6.97;;;12.10;99.90;;;;;;4985823;28;20480;-79
2022/04/23 08:06:38;;;;;;;9.57;7.00;;;12.00;99.70;;;;;;4976669;28;20062;-79
2022/04/23 08:09:07;;;;;;;8.93;6.70;;;12.20;99.90;;;;;;4966740;28;20039;-78
2022/04/23 08:11:34;;;;;;;9.60;7.45;;;12.20;99.70;;;;;;4973449;28;20043;-78
2022/04/23 08:14:04;;;;;;;9.13;7.07;;;12.30;99.90;;;;;;4975162;28;20042;-80
2022/04/23 08:16:31;;;;;;;10.05;6.97;;;12.40;99.60;;;;;;4985037;28;20074;-77
2022/04/23 08:18:59;;;;;;;9.75;7.85;;;12.40;99.00;;;;;;4955828;28;20098;-78
2022/04/23 08:21:26;;;;;;;9.20;7.05;;;12.40;99.30;;;;;;4985215;28;20050;-77
2022/04/23 08:23:53;;;;;;;9.18;6.78;;;12.50;99.30;;;;;;4987535;28;20043;-78
2022/04/23 08:26:22;;;;;;;9.73;7.28;;;12.50;98.90;;;;;;4960352;28;20501;-77
2022/04/23 08:31:33;;;;;;;;;;;12.40;99.20;;;;;;4966118;28;20187;-76
2022/04/23 08:34:02;;;;;;;11.35;7.55;;;12.30;99.00;;;;;;4974041;28;20340;-77
2022/04/23 08:36:35;;;;;;;9.80;7.55;;;12.50;99.50;;;;;;4976530;28;20058;-76
2022/04/23 08:39:04;;;;;;;9.50;7.00;;;12.50;99.20;;;;;;4977669;28;20058;-77
2022/04/23 08:41:34;;;;;;;9.63;7.60;;;12.60;99.20;;;;;;4992586;28;20487;-75
2022/04/23 08:44:06;;;;;;;10.40;7.88;;;12.50;99.40;;;;;;4994195;28;20051;-77
2022/04/23 08:46:36;;;;;;;11.02;8.23;;;12.70;98.80;;;;;;4986684;28;20050;-77
2022/04/23 08:49:14;;;;;;;10.02;7.70;;;12.80;98.70;;;;;;4977922;28;20053;-77
2022/04/23 08:51:48;;;;;;;10.55;7.70;;;12.70;98.10;;;;;;4975380;28;20051;-77
2022/04/23 08:54:16;;;;;;;10.45;8.13;;;12.70;98.30;;;;;;4975308;28;20057;-77
2022/04/23 08:56:47;;;;;;;9.85;7.43;;;12.80;98.40;;;;;;4984171;28;20129;-77
2022/04/23 08:59:16;;;;;;;11.05;8.10;;;12.90;98.30;;;;;;4979891;28;20054;-76
2022/04/23 09:01:44;;;;;;;11.52;8.88;;;12.80;98.10;;;;;;4995542;28;20101;-77
2022/04/23 09:04:13;;;;;;;10.10;7.97;;;12.70;97.90;;;;;;5013320;28;20049;-75
2022/04/23 09:06:42;;;;;;;10.27;8.30;;;12.70;98.30;;;;;;5004751;28;20060;-77
2022/04/23 09:09:13;;;;;;;9.95;7.25;;;12.80;98.30;;;;;;5001846;28;20053;-75
2022/04/23 09:11:43;;;;;;;9.27;6.97;;;13.00;98.50;;;;;;4997018;28;20057;-76
2022/04/23 09:14:24;;;;;;;11.88;8.75;;;13.20;97.80;;;;;;5010749;28;20076;-77
2022/04/23 09:25:16;;;;;;;10.52;8.07;;;13.00;97.80;;;;;;4999250;28;20454;-80
2022/04/23 09:27:44;;;;;;;11.43;7.38;;;13.00;97.60;;;;;;4990101;28;20054;-79
2022/04/23 09:30:14;;;;;;;10.90;8.00;;;13.20;97.80;;;;;;4990310;28;20614;-82
2022/04/23 09:33:09;;;;;;;9.68;7.45;;;13.10;97.20;;;;;;5004647;28;20130;-80
2022/04/23 09:35:56;;;;;;;12.65;8.90;;;13.10;97.70;;;;;;5002001;28;20450;-81
2022/04/23 09:38:23;;;;;;;10.23;8.02;;;12.70;98.20;;;;;;4990471;28;20046;-80
2022/04/23 09:40:52;;;;;;;12.57;8.57;;;12.70;97.80;;;;;;5007969;28;20085;-80
2022/04/23 09:43:28;;;;;;;12.25;7.85;;;12.70;98.10;;;;;;4998219;28;20082;-80
2022/04/23 09:46:05;;;;;;;10.65;8.00;;;12.70;98.40;;;;;;4980700;28;20140;-80
2022/04/23 09:48:33;;;;;;;11.88;8.48;;;12.80;98.30;;;;;;5005873;28;20050;-77
2022/04/23 09:51:01;;;;;;;10.82;8.10;;;12.70;98.10;;;;;;5001834;28;20064;-80
2022/04/23 09:53:28;;;;;;;9.90;7.28;;;13.00;98.20;;;;;;5009976;28;20045;-77
2022/04/23 09:56:00;;;;;;;10.75;7.07;;;13.10;97.60;;;;;;4992966;28;20054;-80
2022/04/23 09:58:31;;;;;;;10.00;7.55;;;13.20;97.80;;;;;;5002624;28;20129;-81
2022/04/23 10:00:59;;;;;;;10.82;7.53;;;13.10;97.60;;;;;;4983938;28;20065;-80
2022/04/23 10:03:31;;;;;;;10.02;7.30;;;13.20;97.80;;;;;;4980542;28;20129;-78
2022/04/23 10:06:01;;;;;;;11.10;7.75;;;13.30;97.30;;;;;;4971159;28;20518;-79
2022/04/23 10:08:33;;;;;;;10.95;7.63;;;13.30;97.40;;;;;;4978226;28;20086;-79
2022/04/23 10:11:07;;;;;;;11.73;8.48;;;13.30;97.50;;;;;;4956653;28;20057;-80
2022/04/23 10:13:36;;;;;;;11.60;8.20;;;13.40;96.80;;;;;;4960632;28;20057;-80
2022/04/23 10:16:05;;;;;;;12.02;8.65;;;13.50;97.20;;;;;;4975096;28;20053;-79
2022/04/23 10:18:38;;;;;;;10.13;7.47;;;13.60;96.60;;;;;;4971806;28;20105;-79
2022/04/23 10:21:08;;;;;;;12.40;9.02;;;13.70;96.70;;;;;;4987105;28;20069;-80
2022/04/23 10:24:00;;;;;;;11.30;8.88;;;13.50;96.40;;;;;;4963367;28;20131;-81
2022/04/23 10:26:43;;;;;;;12.30;8.88;;;13.70;96.30;;;;;;4982613;28;20050;-81
2022/04/23 10:29:14;;;;;;;19.58;14.23;;;13.80;96.30;;;;;;4972328;28;20480;-81
2022/04/23 10:31:42;;;;;;;15.57;11.10;;;13.80;96.50;;;;;;4986068;28;20133;-81
2022/04/23 10:34:32;;;;;;;17.20;12.85;;;13.90;95.80;;;;;;4982046;28;20051;-80
2022/04/23 10:37:20;;;;;;;19.35;14.27;;;13.80;96.20;;;;;;4955150;28;20487;-81
2022/04/23 10:40:14;;;;;;;22.40;18.13;;;13.90;95.50;;;;;;4974445;28;20467;-82
2022/04/23 10:43:09;;;;;;;15.05;12.40;;;13.70;95.40;;;;;;4979776;28;20086;-81
2022/04/23 10:45:40;;;;;;;12.52;9.15;;;13.80;95.30;;;;;;4983387;28;20086;-82
2022/04/23 10:48:28;;;;;;;11.90;8.52;;;13.60;95.30;;;;;;4972271;28;20463;-82
2022/04/23 10:51:26;;;;;;;11.10;8.32;;;13.80;95.90;;;;;;4979843;28;20050;-83
2022/04/23 10:53:57;;;;;;;9.98;7.10;;;13.80;95.60;;;;;;4956321;28;20418;-83
2022/04/23 10:56:26;;;;;;;9.80;7.15;;;14.00;96.20;;;;;;4989585;28;20055;-84
2022/04/23 10:58:53;;;;;;;11.57;8.10;;;14.10;95.90;;;;;;4979372;28;20051;-79
2022/04/23 11:01:29;;;;;;;11.98;8.35;;;14.00;94.90;;;;;;4983352;28;20105;-81
2022/04/23 11:04:21;;;;;;;10.52;7.80;;;13.90;95.10;;;;;;4989532;28;20104;-80
2022/04/23 11:12:34;;;;;;;8.07;6.18;;;14.00;95.70;;;;;;4958732;28;20506;-84
2022/04/23 11:15:02;;;;;;;9.85;7.50;;;14.10;95.70;;;;;;4985053;28;20054;-80
2022/04/23 11:17:53;;;;;;;10.60;7.53;;;14.20;94.80;;;;;;4989368;28;20050;-81
2022/04/23 11:20:37;;;;;;;12.30;7.82;;;14.00;95.00;;;;;;4990488;28;20050;-82
2022/04/23 11:23:07;;;;;;;10.63;7.82;;;14.00;94.90;;;;;;4994311;28;20124;-82
2022/04/23 11:25:34;;;;;;;10.48;7.88;;;14.00;95.30;;;;;;4992408;28;20050;-82
2022/04/23 11:28:16;;;;;;;11.55;8.35;;;14.10;94.80;;;;;;4994020;28;20148;-82
2022/04/23 11:30:43;;;;;;;13.55;9.43;;;14.30;95.30;;;;;;4994248;28;20061;-82
2022/04/23 11:33:12;;;;;;;11.63;8.10;;;14.30;94.90;;;;;;4993614;28;20519;-82
2022/04/23 11:35:40;;;;;;;10.23;7.38;;;14.30;95.00;;;;;;4993861;28;20058;-82
2022/04/23 11:38:20;;;;;;;10.30;7.90;;;14.20;94.60;;;;;;4993832;28;20046;-82
2022/04/23 11:40:47;;;;;;;10.10;7.05;;;14.20;95.10;;;;;;4994016;28;20050;-82
2022/04/23 11:43:33;;;;;;;9.45;6.85;;;14.30;95.10;;;;;;4993307;28;20050;-81
2022/04/23 11:46:05;;;;;;;9.05;6.85;;;14.30;94.80;;;;;;4993490;28;20139;-82
2022/04/23 11:48:48;;;;;;;9.32;6.68;;;14.30;95.30;;;;;;4993255;28;20058;-82
2022/04/23 11:51:19;;;;;;;9.57;7.00;;;14.40;94.90;;;;;;4974328;28;20051;-82
2022/04/23 11:53:59;;;;;;;10.20;7.65;;;14.20;94.80;;;;;;4974303;28;20086;-80
2022/04/23 11:56:30;;;;;;;10.70;7.38;;;14.20;94.50;;;;;;4973786;28;20042;-79
2022/04/23 11:58:59;;;;;;;10.60;7.20;;;14.20;94.60;;;;;;4974285;28;20397;-81
2022/04/23 12:01:28;;;;;;;9.52;7.20;;;14.10;94.90;;;;;;4974048;28;20062;-80
2022/04/23 12:03:57;;;;;;;10.75;7.32;;;14.20;95.20;;;;;;4973906;28;20057;-80
2022/04/23 12:06:26;;;;;;;10.85;7.40;;;14.40;95.10;;;;;;4973962;28;20456;-80
2022/04/23 12:09:08;;;;;;;9.05;7.00;;;14.40;94.90;;;;;;4973239;28;20062;-80
2022/04/23 12:11:35;;;;;;;9.57;7.20;;;14.20;95.00;;;;;;4987033;28;20104;-80
2022/04/23 12:14:03;;;;;;;9.10;6.45;;;14.10;94.90;;;;;;4993311;28;20050;-80
2022/04/23 12:16:36;;;;;;;10.15;6.15;;;14.20;95.00;;;;;;4991906;28;20063;-80
2022/04/23 12:19:06;;;;;;;8.13;5.82;;;14.50;94.80;;;;;;4981272;28;20086;-81
2022/04/23 12:21:34;;;;;;;9.82;6.82;;;14.50;95.00;;;;;;4973614;28;20057;-81
2022/04/23 12:24:07;;;;;;;7.20;5.50;;;14.60;94.90;;;;;;4992888;28;20053;-80
2022/04/23 12:26:36;;;;;;;9.48;6.75;;;14.80;95.00;;;;;;4988965;28;20054;-80
2022/04/23 12:43:28;;;;;;;9.25;6.80;;;15.20;95.30;;;;;;4989877;28;20147;-83
2022/04/23 12:46:07;;;;;;;9.82;6.75;;;15.10;95.30;;;;;;4981137;28;20389;-84
2022/04/23 12:49:00;;;;;;;8.00;6.30;;;15.10;95.70;;;;;;4988922;28;20050;-82
2022/04/23 12:51:27;;;;;;;8.55;6.35;;;15.20;95.60;;;;;;4990848;28;20200;-83
2022/04/23 12:53:54;;;;;;;8.77;6.68;;;15.30;95.40;;;;;;4974133;28;20492;-83
2022/04/23 12:56:35;;;;;;;8.25;6.00;;;15.10;95.40;;;;;;4988438;28;20171;-83
2022/04/23 12:59:05;;;;;;;8.10;5.40;;;15.10;95.60;;;;;;4988725;28;20046;-83
2022/04/23 13:01:32;;;;;;;6.68;5.18;;;15.30;95.00;;;;;;4999485;28;20046;-82
2022/04/23 13:04:02;;;;;;;7.50;6.15;;;15.40;94.40;;;;;;5008967;28;20096;-82
2022/04/23 13:09:13;;;;;;;7.90;6.03;;;15.30;94.10;;;;;;5000264;28;20387;-79
2022/04/23 13:11:41;;;;;;;8.85;6.40;;;15.20;93.50;;;;;;5008174;28;20053;-79
2022/04/23 13:14:09;;;;;;;8.73;6.47;;;15.00;94.00;;;;;;4998444;28;20042;-79
2022/04/23 13:16:38;;;;;;;8.55;6.40;;;14.90;94.50;;;;;;5003201;28;20053;-79
2022/04/23 13:19:05;;;;;;;8.30;6.63;;;14.70;94.20;;;;;;5006691;28;20549;-79
2022/04/23 13:21:36;;;;;;;8.65;6.40;;;14.90;94.50;;;;;;5009045;28;20379;-79
2022/04/23 13:24:04;;;;;;;8.10;6.13;;;14.80;94.40;;;;;;5008932;28;20057;-80
2022/04/23 13:26:31;;;;;;;9.38;6.40;;;14.90;94.60;;;;;;4999610;28;20052;-80
2022/04/23 13:29:00;;;;;;;9.60;6.40;;;14.90;94.20;;;;;;4994315;28;20141;-80
2022/04/23 13:31:27;;;;;;;7.70;6.03;;;14.90;94.70;;;;;;4997771;28;20053;-80
2022/04/23 13:33:54;;;;;;;8.35;6.30;;;15.20;94.30;;;;;;4994347;28;20050;-80
2022/04/23 13:36:22;;;;;;;10.23;6.45;;;15.20;94.30;;;;;;5006940;28;20132;-79
2022/04/23 13:38:49;;;;;;;9.77;5.90;;;15.30;94.30;;;;;;5007207;28;20050;-80
2022/04/23 13:41:19;;;;;;;7.43;5.30;;;15.30;93.90;;;;;;5008474;28;20133;-80
2022/04/23 13:43:48;;;;;;;7.93;5.53;;;15.20;94.10;;;;;;5005161;28;20483;-79
2022/04/23 13:46:16;;;;;;;9.65;6.15;;;15.00;93.80;;;;;;5003669;28;20042;-77
2022/04/23 13:48:44;;;;;;;7.78;6.13;;;14.90;94.10;;;;;;5005614;28;20060;-79
2022/04/23 13:51:11;;;;;;;6.88;5.20;;;15.00;94.80;;;;;;5009795;28;20037;-79
2022/04/23 13:53:38;;;;;;;9.30;6.15;;;15.00;94.50;;;;;;4999011;28;20712;-80
2022/04/23 13:56:06;;;;;;;9.70;7.03;;;15.00;94.40;;;;;;5005993;28;20132;-80
2022/04/23 13:58:33;;;;;;;8.18;6.50;;;15.10;93.70;;;;;;5009594;28;20042;-79
2022/04/23 14:01:00;;;;;;;7.22;5.28;;;15.00;93.80;;;;;;4994910;28;20058;-80
2022/04/23 14:11:42;;;;;;;8.05;5.47;;;15.10;93.90;;;;;;4970148;28;20776;-79
2022/04/23 14:14:09;;;;;;;7.65;5.55;;;15.10;94.20;;;;;;4970027;28;20062;-79
2022/04/23 14:16:37;;;;;;;8.05;6.03;;;15.20;93.80;;;;;;4972152;28;20576;-80
2022/04/23 14:19:05;;;;;;;9.20;6.75;;;15.20;93.60;;;;;;4977841;28;20053;-80
2022/04/23 14:21:33;;;;;;;7.47;5.20;;;15.20;94.10;;;;;;4990401;28;20375;-80
2022/04/23 14:24:00;;;;;;;6.97;5.10;;;15.20;94.70;;;;;;4980088;28;20047;-79
2022/04/23 14:26:27;;;;;;;7.25;4.93;;;15.20;94.10;;;;;;4969147;28;20054;-79
2022/04/23 14:28:54;;;;;;;7.65;5.93;;;15.10;94.10;;;;;;4970330;28;20057;-79
2022/04/23 14:31:21;;;;;;;7.90;5.50;;;15.00;94.50;;;;;;4970145;28;20047;-79
2022/04/23 14:33:48;;;;;;;8.48;6.30;;;15.00;94.80;;;;;;4970312;28;20061;-79
2022/04/23 14:36:17;;;;;;;8.93;5.65;;;14.90;94.30;;;;;;4969993;28;20514;-80
2022/04/23 14:38:44;;;;;;;7.80;5.75;;;15.00;94.70;;;;;;4969608;28;20810;-80
2022/04/23 14:41:11;;;;;;;8.10;5.70;;;14.90;94.50;;;;;;4970577;28;20061;-80
2022/04/23 14:43:38;;;;;;;7.93;5.45;;;14.80;94.70;;;;;;4969059;28;20420;-79
2022/04/23 14:46:05;;;;;;;7.10;5.20;;;15.00;94.90;;;;;;4970258;28;20046;-80
2022/04/23 14:48:32;;;;;;;7.35;5.38;;;15.00;95.00;;;;;;4969219;28;20057;-80
2022/04/23 14:53:45;;;;;;;9.55;6.80;;;15.10;94.30;;;;;;4969711;28;20070;-79
2022/04/23 14:56:14;;;;;;;9.27;6.40;;;15.10;93.80;;;;;;4971876;28;20122;-79
2022/04/23 14:58:41;;;;;;;11.73;8.57;;;15.30;93.30;;;;;;4973326;28;20122;-79
2022/04/23 15:01:08;;;;;;;11.27;7.80;;;15.10;93.50;;;;;;4973750;28;20077;-79
2022/04/23 15:03:36;;;;;;;9.93;7.50;;;15.30;93.40;;;;;;4973330;28;20047;-79
2022/04/23 15:06:04;;;;;;;10.57;7.47;;;15.30;93.20;;;;;;4978217;28;20050;-79
2022/04/23 15:08:31;;;;;;;8.52;6.20;;;15.40;93.10;;;;;;4992969;28;20463;-79
2022/04/23 15:11:00;;;;;;;10.07;7.22;;;15.60;93.10;;;;;;4981093;28;20062;-79
2022/04/23 15:13:28;;;;;;;9.20;6.65;;;16.20;91.90;;;;;;4986291;28;20046;-79
2022/04/23 15:15:56;;;;;;;11.45;7.90;;;17.30;90.30;;;;;;4985614;28;20050;-79
2022/04/23 15:18:23;;;;;;;10.55;7.32;;;16.90;90.10;;;;;;4992860;28;20050;-79
2022/04/23 15:20:50;;;;;;;10.95;8.07;;;16.70;90.80;;;;;;4975509;28;20050;-79
2022/04/23 15:23:18;;;;;;;10.80;8.10;;;17.40;89.70;;;;;;4992766;28;20567;-79
2022/04/23 15:25:45;;;;;;;11.13;7.85;;;17.40;87.40;;;;;;4978844;28;20051;-79
2022/04/23 15:28:14;;;;;;;11.13;7.50;;;17.10;88.80;;;;;;4986878;28;20049;-79
2022/04/23 15:30:42;;;;;;;12.50;8.30;;;17.40;87.10;;;;;;4974985;28;20055;-79
2022/04/23 15:33:09;;;;;;;9.25;6.28;;;17.30;87.50;;;;;;4977704;28;20125;-80
2022/04/23 15:35:36;;;;;;;9.60;7.30;;;17.90;88.50;;;;;;4987857;28;20488;-79
2022/04/23 15:38:03;;;;;;;10.00;7.40;;;18.10;85.10;;;;;;4993199;28;20057;-79
2022/04/23 15:40:30;;;;;;;10.10;7.40;;;18.20;84.90;;;;;;4988571;28;20053;-79
2022/04/23 15:42:57;;;;;;;10.75;7.38;;;18.00;84.40;;;;;;4988303;28;20047;-79
2022/04/23 15:45:26;;;;;;;10.25;6.85;;;17.90;85.10;;;;;;4980254;28;20214;-79
2022/04/23 15:47:53;;;;;;;9.75;6.65;;;17.90;83.80;;;;;;4977531;28;20050;-79
2022/04/23 15:50:20;;;;;;;10.43;7.80;;;17.90;83.20;;;;;;4977141;28;20065;-79
2022/04/23 15:52:47;;;;;;;10.07;7.15;;;17.50;83.80;;;;;;4982180;28;20057;-79
2022/04/23 15:55:14;;;;;;;10.82;8.38;;;17.50;84.90;;;;;;4972961;28;20584;-79
2022/04/23 15:57:41;;;;;;;11.43;7.95;;;17.40;84.90;;;;;;4972767;28;20431;-79
2022/04/23 16:00:10;;;;;;;11.32;7.63;;;17.20;86.20;;;;;;4972775;28;20049;-79
2022/04/23 16:02:38;;;;;;;11.50;8.00;;;17.40;86.00;;;;;;4996126;28;20056;-79
2022/04/23 16:05:09;;;;;;;9.20;7.03;;;17.80;85.00;;;;;;5010782;28;20446;-79
2022/04/23 16:07:36;;;;;;;11.32;8.32;;;18.00;83.70;;;;;;5010368;28;20050;-79
2022/04/23 16:10:04;;;;;;;11.50;8.00;;;17.90;83.80;;;;;;5006920;28;20389;-79
2022/04/23 16:12:31;;;;;;;11.27;7.60;;;17.80;85.40;;;;;;5000853;28;20052;-79
2022/04/23 16:14:59;;;;;;;10.55;7.03;;;17.70;84.70;;;;;;4999282;28;20834;-79
2022/04/23 16:17:27;;;;;;;10.20;7.85;;;17.60;86.10;;;;;;5008244;28;20139;-79
2022/04/23 16:19:55;;;;;;;10.32;7.95;;;17.40;85.70;;;;;;4991070;28;20058;-79
2022/04/23 16:22:22;;;;;;;11.57;8.13;;;17.10;87.20;;;;;;4999608;28;20045;-79
2022/04/23 16:24:49;;;;;;;10.25;7.40;;;16.90;87.50;;;;;;5003809;28;20055;-81
2022/04/23 16:27:16;;;;;;;12.45;8.90;;;16.80;88.50;;;;;;4989529;28;20050;-79
2022/04/23 16:29:43;;;;;;;11.05;7.93;;;16.70;89.00;;;;;;5007673;28;20434;-80
2022/04/23 16:32:10;;;;;;;10.05;7.40;;;16.60;90.20;;;;;;5010885;28;20050;-79
2022/04/23 16:34:37;;;;;;;11.15;7.90;;;16.60;89.60;;;;;;4994379;28;20064;-79
2022/04/23 16:48:06;;;;;;;12.48;8.77;;;16.10;90.00;;;;;;4997751;28;20096;-79
2022/04/23 16:50:37;;;;;;;14.95;9.75;;;16.10;90.50;;;;;;5006285;28;20054;-79
2022/04/23 16:53:07;;;;;;;14.95;10.48;;;16.00;90.70;;;;;;5008750;28;20136;-79
2022/04/23 16:55:35;;;;;;;14.07;10.02;;;15.90;90.70;;;;;;5002495;28;20475;-80
2022/04/23 16:58:02;;;;;;;12.30;8.93;;;15.90;91.20;;;;;;4997720;28;20077;-80
2022/04/23 17:00:29;;;;;;;14.77;9.82;;;15.90;90.90;;;;;;4990482;28;20417;-80
2022/04/23 17:02:56;;;;;;;14.13;9.90;;;15.80;90.80;;;;;;4990640;28;20048;-80
2022/04/23 17:05:24;;;;;;;12.18;8.70;;;15.80;91.00;;;;;;4999259;28;20068;-80
2022/04/23 17:07:51;;;;;;;14.15;9.27;;;15.90;90.90;;;;;;4983838;28;20053;-80
2022/04/23 17:10:19;;;;;;;14.50;10.40;;;15.90;91.10;;;;;;4990657;28;20046;-81
2022/04/23 17:12:47;;;;;;;15.57;10.13;;;15.70;90.80;;;;;;5000044;28;20784;-78
2022/04/23 17:15:15;;;;;;;14.35;9.40;;;15.70;91.40;;;;;;4997787;28;20046;-81
2022/04/23 17:17:42;;;;;;;13.15;9.52;;;15.80;91.20;;;;;;4997035;28;20141;-82
2022/04/23 17:20:10;;;;;;;14.43;9.70;;;15.70;91.10;;;;;;5006790;28;20052;-81
2022/04/23 17:22:38;;;;;;;13.15;9.70;;;15.80;91.40;;;;;;4998375;28;20042;-82
2022/04/23 17:25:06;;;;;;;13.23;8.73;;;15.80;91.10;;;;;;4996803;28;20058;-82
2022/04/23 17:27:35;;;;;;;13.45;9.27;;;15.90;91.20;;;;;;5001704;28;20054;-80
2022/04/23 17:30:05;;;;;;;13.50;9.32;;;15.80;91.60;;;;;;4995920;28;20053;-82
2022/04/23 17:32:32;;;;;;;11.70;8.45;;;15.70;91.90;;;;;;5008649;28;20056;-80
2022/04/23 17:34:59;;;;;;;11.90;8.63;;;15.70;91.80;;;;;;5003075;28;20038;-81
2022/04/23 17:37:26;;;;;;;12.10;9.23;;;15.70;91.70;;;;;;5006542;28;20053;-80
2022/04/23 17:39:54;;;;;;;12.50;9.32;;;15.50;91.60;;;;;;5007985;28;20052;-81
2022/04/23 17:42:21;;;;;;;11.05;8.50;;;15.50;92.10;;;;;;5000952;28;20459;-83
2022/04/23 17:44:50;;;;;;;12.35;9.27;;;15.60;92.40;;;;;;5006845;28;20146;-82
2022/04/23 17:47:17;;;;;;;12.77;9.38;;;15.70;92.40;;;;;;5003306;28;20133;-80
2022/04/23 17:49:44;;;;;;;16.83;9.40;;;15.70;91.80;;;;;;4989529;28;20137;-80
2022/04/23 17:52:11;;;;;;;11.82;8.13;;;15.80;91.70;;;;;;5004213;28;20050;-81
2022/04/23 17:54:38;;;;;;;13.73;10.30;;;15.70;91.80;;;;;;4991387;28;20051;-78
2022/04/23 17:57:06;;;;;;;12.68;8.95;;;15.40;92.70;;;;;;5001809;28;20432;-82
2022/04/23 17:59:33;;;;;;;12.50;8.77;;;15.40;92.70;;;;;;5000368;28;20048;-80
2022/04/23 18:07:32;;;;;;;13.07;8.95;;;15.70;91.40;;;;;;5008648;28;20100;-80
2022/04/23 18:10:03;;;;;;;12.23;8.40;;;15.50;92.30;;;;;;5008524;28;20482;-79
2022/04/23 18:12:32;;;;;;;12.82;8.55;;;15.40;92.70;;;;;;5006123;28;20104;-76
2022/04/23 18:14:59;;;;;;;11.45;8.32;;;15.20;93.30;;;;;;4995815;28;20046;-77
2022/04/23 18:17:28;;;;;;;12.00;8.40;;;15.20;93.60;;;;;;5006752;28;20056;-78
2022/04/23 18:19:56;;;;;;;11.48;8.32;;;15.30;93.70;;;;;;4996227;28;20522;-85
2022/04/23 18:22:23;;;;;;;10.93;7.90;;;15.10;94.00;;;;;;5000169;28;20051;-79
2022/04/23 18:24:51;;;;;;;11.63;8.27;;;15.10;94.30;;;;;;4990995;28;20742;-82
2022/04/23 18:27:18;;;;;;;11.52;7.93;;;15.00;95.00;;;;;;4996677;28;20038;-83
2022/04/23 18:29:48;;;;;;;11.90;8.35;;;15.10;94.90;;;;;;4988955;28;20694;-82
2022/04/23 18:32:15;;;;;;;11.30;8.38;;;14.90;95.30;;;;;;4994058;28;20058;-84
2022/04/23 18:34:44;;;;;;;12.00;8.18;;;14.90;95.20;;;;;;5008192;28;20050;-82
2022/04/23 18:37:11;;;;;;;11.35;8.20;;;14.80;95.60;;;;;;4977772;28;20105;-79
2022/04/23 18:39:39;;;;;;;10.82;8.18;;;14.80;95.80;;;;;;5002527;28;20104;-85
2022/04/23 18:42:08;;;;;;;12.15;8.68;;;14.70;96.40;;;;;;4996380;28;20463;-85
2022/04/23 18:44:35;;;;;;;12.45;8.93;;;14.70;96.30;;;;;;5006028;28;20050;-88
2022/04/23 18:47:02;;;;;;;13.57;8.88;;;14.60;96.70;;;;;;5009453;28;20046;-81
2022/04/23 18:49:29;;;;;;;10.63;8.32;;;14.50;97.00;;;;;;5000318;28;20133;-81
2022/04/23 18:51:57;;;;;;;12.43;8.73;;;14.40;96.90;;;;;;4989771;28;20073;-81
2022/04/23 18:54:24;;;;;;;11.55;8.57;;;14.30;97.30;;;;;;4998746;28;20050;-80
2022/04/23 18:56:53;;;;;;;13.77;9.40;;;14.30;97.10;;;;;;4994294;28;20042;-82
2022/04/23 18:59:20;;;;;;;12.02;8.73;;;14.30;97.40;;;;;;4995351;28;20148;-80